Time;durP1;ratioP1;P1;durP2;ratioP2;P2;SDS_P1;SDS_P2;PMS_P1;PMS_P2;Temp;Humidity;BMP_temperature;BMP_pressure;BME280_temperature;BME280_humidity;BME280_pressure;Samples;Min_cycle;Max_cycle;Signal;HPM_P1;HPM_P2
2022/07/15 00:00:21;;;;;;;5.07;1.97;;;13.10;99.90;;;;;;5108858;28;20227;-51
2022/07/15 00:02:49;;;;;;;2.27;1.50;;;13.10;99.90;;;;;;5109344;28;20713;-51
2022/07/15 00:05:18;;;;;;;4.77;1.40;;;13.10;99.90;;;;;;5109308;28;20219;-51
2022/07/15 00:07:46;;;;;;;3.30;1.60;;;13.10;99.90;;;;;;5109095;28;20258;-51
2022/07/15 00:10:18;;;;;;;2.33;1.50;;;13.10;99.90;;;;;;5109837;28;20200;-52
2022/07/15 00:12:48;;;;;;;3.30;1.60;;;13.10;99.90;;;;;;5108908;28;20207;-51
2022/07/15 00:15:18;;;;;;;3.87;1.70;;;13.00;99.90;;;;;;5109058;28;20238;-50
2022/07/15 00:17:46;;;;;;;3.13;1.57;;;13.00;99.90;;;;;;5109423;28;20340;-51
2022/07/15 00:20:14;;;;;;;2.63;1.73;;;13.00;99.90;;;;;;5112232;28;20257;-51
2022/07/15 00:22:44;;;;;;;2.87;1.50;;;13.00;99.90;;;;;;5112595;28;20729;-52
2022/07/15 00:25:13;;;;;;;3.43;1.67;;;12.90;99.90;;;;;;5112673;28;20232;-52
2022/07/15 00:27:53;;;;;;;2.40;1.33;;;12.90;99.90;;;;;;5112997;28;20204;-51
2022/07/15 00:30:22;;;;;;;2.80;1.57;;;12.80;99.90;;;;;;5112638;28;20207;-51
2022/07/15 00:32:51;;;;;;;2.70;1.73;;;12.80;99.90;;;;;;5113132;28;20208;-51
2022/07/15 00:35:19;;;;;;;4.87;1.90;;;12.70;99.90;;;;;;5108647;28;20277;-51
2022/07/15 00:37:47;;;;;;;4.73;1.80;;;12.60;99.90;;;;;;5104956;28;20260;-51
2022/07/15 00:40:15;;;;;;;3.20;1.73;;;12.60;99.90;;;;;;5112866;28;20264;-51
2022/07/15 00:42:46;;;;;;;4.87;1.90;;;12.50;99.90;;;;;;5112769;28;20204;-51
2022/07/15 00:45:17;;;;;;;1.83;1.33;;;12.50;99.90;;;;;;5112379;28;20235;-51
2022/07/15 00:47:46;;;;;;;1.97;1.67;;;12.50;99.90;;;;;;5112926;28;20204;-51
2022/07/15 00:50:15;;;;;;;3.90;1.70;;;12.50;99.90;;;;;;5112421;28;20635;-51
2022/07/15 00:52:46;;;;;;;2.77;1.60;;;12.40;99.90;;;;;;5112734;28;20660;-52
2022/07/15 00:55:14;;;;;;;3.70;1.77;;;12.30;99.90;;;;;;5112484;28;20235;-51
2022/07/15 00:57:44;;;;;;;2.87;1.50;;;12.30;99.90;;;;;;5112796;28;20623;-51
2022/07/15 01:00:15;;;;;;;2.27;1.60;;;12.30;99.90;;;;;;5112115;28;20223;-51
2022/07/15 01:02:50;;;;;;;2.43;1.87;;;12.20;99.90;;;;;;5112258;28;20199;-52
2022/07/15 01:05:20;;;;;;;3.67;1.60;;;12.20;99.90;;;;;;5112140;28;20257;-51
2022/07/15 01:07:49;;;;;;;2.77;1.50;;;12.20;99.90;;;;;;5112134;28;20200;-51
2022/07/15 01:10:18;;;;;;;3.13;1.87;;;12.20;99.90;;;;;;5112460;28;20207;-51
2022/07/15 01:12:47;;;;;;;2.00;1.80;;;12.30;99.90;;;;;;5111837;28;20294;-51
2022/07/15 01:15:18;;;;;;;1.77;1.60;;;12.20;99.90;;;;;;5111925;28;20227;-51
2022/07/15 01:17:47;;;;;;;1.97;1.47;;;12.20;99.90;;;;;;5111908;28;20614;-51
2022/07/15 01:20:16;;;;;;;4.20;1.80;;;12.20;99.90;;;;;;5111958;28;20231;-51
2022/07/15 01:22:47;;;;;;;2.20;1.80;;;12.20;99.90;;;;;;5112034;28;20732;-51
2022/07/15 01:25:15;;;;;;;2.80;2.00;;;12.20;99.90;;;;;;5111981;28;20735;-51
2022/07/15 01:27:44;;;;;;;4.33;1.90;;;12.20;99.90;;;;;;5112116;28;20268;-50
2022/07/15 01:30:12;;;;;;;3.87;1.70;;;12.10;99.90;;;;;;5112267;28;20651;-51
2022/07/15 01:32:40;;;;;;;2.73;1.80;;;12.10;99.90;;;;;;5113473;28;20261;-52
2022/07/15 01:35:09;;;;;;;2.97;1.70;;;12.10;99.90;;;;;;5111219;28;20223;-50
2022/07/15 01:37:37;;;;;;;2.33;1.60;;;12.00;99.90;;;;;;5111019;28;20256;-52
2022/07/15 01:40:08;;;;;;;3.60;1.97;;;12.00;99.90;;;;;;5111467;28;20772;-51
2022/07/15 01:42:36;;;;;;;3.60;1.90;;;11.90;99.90;;;;;;5111430;28;20248;-52
2022/07/15 01:45:05;;;;;;;4.13;1.97;;;11.90;99.90;;;;;;5111718;28;20232;-51
2022/07/15 01:47:34;;;;;;;2.50;1.80;;;11.90;99.90;;;;;;5111275;28;20609;-51
2022/07/15 01:50:02;;;;;;;2.87;1.83;;;11.90;99.90;;;;;;5111980;28;20199;-52
2022/07/15 01:52:30;;;;;;;4.07;1.87;;;11.90;99.90;;;;;;5112128;28;20204;-51
2022/07/15 01:54:58;;;;;;;2.87;1.80;;;11.80;99.90;;;;;;5111593;28;20224;-52
2022/07/15 01:57:27;;;;;;;1.67;1.57;;;11.80;99.90;;;;;;5110913;28;20276;-52
2022/07/15 01:59:56;;;;;;;2.47;1.70;;;11.80;99.90;;;;;;5110562;28;20227;-51
2022/07/15 02:02:24;;;;;;;2.83;2.10;;;11.80;99.90;;;;;;5111421;28;20264;-52
2022/07/15 02:04:52;;;;;;;2.93;1.93;;;11.80;99.90;;;;;;5111237;28;20228;-51
2022/07/15 02:07:20;;;;;;;2.97;2.00;;;11.80;99.90;;;;;;5110231;28;20257;-51
2022/07/15 02:09:48;;;;;;;4.10;2.07;;;11.80;99.90;;;;;;5111512;28;20222;-51
2022/07/15 02:12:16;;;;;;;4.80;2.07;;;11.80;99.90;;;;;;5110976;28;20211;-51
2022/07/15 02:14:46;;;;;;;3.13;1.93;;;11.70;99.90;;;;;;5110683;28;20227;-52
2022/07/15 02:17:14;;;;;;;3.07;1.83;;;11.70;99.90;;;;;;5111411;28;20562;-51
2022/07/15 02:19:42;;;;;;;5.40;2.00;;;11.60;99.90;;;;;;5110962;28;20574;-51
2022/07/15 02:22:10;;;;;;;6.13;2.17;;;11.60;99.90;;;;;;5111170;28;20215;-51
2022/07/15 02:24:38;;;;;;;4.47;2.00;;;11.50;99.90;;;;;;5110345;28;20699;-50
2022/07/15 02:27:07;;;;;;;4.07;2.00;;;11.50;99.90;;;;;;5111540;28;20215;-51
2022/07/15 02:29:35;;;;;;;4.53;2.10;;;11.50;99.90;;;;;;5110743;28;20223;-51
2022/07/15 02:32:06;;;;;;;4.00;2.40;;;11.50;99.90;;;;;;5109183;28;20216;-51
2022/07/15 02:34:34;;;;;;;5.27;2.20;;;11.60;99.90;;;;;;5110885;28;20281;-50
2022/07/15 02:37:02;;;;;;;6.13;2.30;;;11.60;99.90;;;;;;5110914;28;20211;-51
2022/07/15 02:39:30;;;;;;;3.40;1.80;;;11.60;99.90;;;;;;5111160;28;20367;-51
2022/07/15 02:41:58;;;;;;;4.67;2.17;;;11.60;99.90;;;;;;5109705;28;20272;-51
2022/07/15 02:44:26;;;;;;;3.80;2.00;;;11.60;99.90;;;;;;5111227;28;20892;-51
2022/07/15 02:46:54;;;;;;;4.13;2.00;;;11.60;99.90;;;;;;5110691;28;20763;-51
2022/07/15 02:49:24;;;;;;;3.23;2.30;;;11.50;99.90;;;;;;5110529;28;20199;-51
2022/07/15 02:51:52;;;;;;;2.57;1.90;;;11.50;99.90;;;;;;5110898;28;20601;-50
2022/07/15 02:54:20;;;;;;;5.47;2.53;;;11.40;99.90;;;;;;5110048;28;20224;-50
2022/07/15 02:56:48;;;;;;;5.47;2.30;;;11.40;99.90;;;;;;5110897;28;20673;-51
2022/07/15 02:59:16;;;;;;;3.30;2.60;;;11.30;99.90;;;;;;5110788;28;20199;-51
2022/07/15 03:01:44;;;;;;;3.63;2.30;;;11.40;99.90;;;;;;5110217;28;20223;-51
2022/07/15 03:04:12;;;;;;;2.30;2.10;;;11.40;99.90;;;;;;5110691;28;20277;-49
2022/07/15 03:06:42;;;;;;;3.53;2.10;;;11.40;99.90;;;;;;5109874;28;20260;-51
2022/07/15 03:09:10;;;;;;;2.63;2.40;;;11.50;99.90;;;;;;5110383;28;20726;-51
2022/07/15 03:11:38;;;;;;;4.20;2.30;;;11.50;99.90;;;;;;5110277;28;20248;-51
2022/07/15 03:14:06;;;;;;;2.97;1.97;;;11.50;99.90;;;;;;5109670;28;20219;-51
2022/07/15 03:16:34;;;;;;;4.47;2.47;;;11.50;99.90;;;;;;5110466;28;20672;-51
2022/07/15 03:19:03;;;;;;;5.60;2.43;;;11.40;99.90;;;;;;5110076;28;20216;-50
2022/07/15 03:21:31;;;;;;;5.00;2.10;;;11.30;99.90;;;;;;5109702;28;20219;-51
2022/07/15 03:24:00;;;;;;;4.03;2.43;;;11.30;99.90;;;;;;5109748;28;20277;-51
2022/07/15 03:26:29;;;;;;;3.70;2.30;;;11.30;99.90;;;;;;5110128;28;20215;-51
2022/07/15 03:28:59;;;;;;;3.97;2.60;;;11.30;99.90;;;;;;5110440;28;20211;-51
2022/07/15 03:31:27;;;;;;;6.80;2.50;;;11.40;99.90;;;;;;5108876;28;20200;-51
2022/07/15 03:33:56;;;;;;;5.37;2.50;;;11.40;99.90;;;;;;5110500;28;20242;-51
2022/07/15 03:36:24;;;;;;;4.37;2.60;;;11.40;99.90;;;;;;5109548;28;20203;-51
2022/07/15 03:38:53;;;;;;;3.83;2.30;;;11.30;99.90;;;;;;5110423;28;20672;-51
2022/07/15 03:41:22;;;;;;;5.93;2.40;;;11.30;99.90;;;;;;5109957;28;20219;-51
2022/07/15 03:43:50;;;;;;;3.80;2.40;;;11.20;99.90;;;;;;5109525;28;20227;-51
2022/07/15 03:46:19;;;;;;;4.23;2.30;;;11.20;99.90;;;;;;5110488;28;20241;-51
2022/07/15 03:48:47;;;;;;;3.50;2.50;;;11.20;99.90;;;;;;5109490;28;20225;-51
2022/07/15 03:51:15;;;;;;;3.40;2.50;;;11.20;99.90;;;;;;5110019;28;20614;-51
2022/07/15 03:53:44;;;;;;;2.77;2.43;;;11.20;99.90;;;;;;5111475;28;20255;-51
2022/07/15 03:56:12;;;;;;;2.40;2.20;;;11.20;99.90;;;;;;5113818;28;20257;-51
2022/07/15 03:58:44;;;;;;;4.30;2.23;;;11.20;99.90;;;;;;5113253;28;20203;-51
2022/07/15 04:01:12;;;;;;;4.60;2.30;;;11.20;99.90;;;;;;5114225;28;20203;-52
2022/07/15 04:03:40;;;;;;;4.17;2.43;;;11.30;99.90;;;;;;5113702;28;20732;-51
2022/07/15 04:06:08;;;;;;;7.30;2.57;;;11.30;99.90;;;;;;5113641;28;20272;-51
2022/07/15 04:08:37;;;;;;;4.10;2.50;;;11.30;99.90;;;;;;5114233;28;20230;-51
2022/07/15 04:11:05;;;;;;;3.43;2.20;;;11.30;99.90;;;;;;5113492;28;20276;-51
2022/07/15 04:13:33;;;;;;;2.90;2.40;;;11.40;99.90;;;;;;5113318;28;20279;-51
2022/07/15 04:16:02;;;;;;;4.40;2.80;;;11.50;99.90;;;;;;5113899;28;20831;-51
2022/07/15 04:18:30;;;;;;;3.90;2.60;;;11.50;99.90;;;;;;5113778;28;20203;-51
2022/07/15 04:21:01;;;;;;;2.80;2.17;;;11.70;99.90;;;;;;5113414;28;20259;-51
2022/07/15 04:23:30;;;;;;;5.17;2.47;;;12.30;99.90;;;;;;5113047;28;20889;-51
2022/07/15 04:25:58;;;;;;;5.70;3.10;;;12.40;99.90;;;;;;5113646;28;20211;-51
2022/07/15 04:28:27;;;;;;;5.40;2.30;;;12.90;99.90;;;;;;5113610;28;20211;-52
2022/07/15 04:30:55;;;;;;;3.20;2.40;;;13.60;99.90;;;;;;5106089;28;20204;-52
2022/07/15 04:33:24;;;;;;;2.90;2.30;;;14.10;99.90;;;;;;5110695;28;20199;-51
2022/07/15 04:35:54;;;;;;;5.23;2.37;;;14.50;99.90;;;;;;5095455;28;20205;-51
2022/07/15 04:38:22;;;;;;;3.30;2.03;;;14.60;99.90;;;;;;5097538;28;20207;-51
2022/07/15 04:40:50;;;;;;;4.60;2.40;;;14.30;99.90;;;;;;5096213;28;20250;-51
2022/07/15 04:43:18;;;;;;;3.27;2.00;;;14.00;99.90;;;;;;5101887;28;20204;-51
2022/07/15 04:45:47;;;;;;;2.70;2.00;;;14.00;99.90;;;;;;5094636;28;20204;-52
2022/07/15 04:51:02;;;;;;;3.07;2.17;;;13.70;99.90;;;;;;5097443;28;20204;-51
2022/07/15 04:53:31;;;;;;;3.87;2.30;;;13.70;99.90;;;;;;5094416;28;20793;-51
2022/07/15 04:55:59;;;;;;;2.90;2.13;;;14.10;99.90;;;;;;5098593;28;20212;-51
2022/07/15 04:58:27;;;;;;;4.67;2.33;;;14.30;99.90;;;;;;5115305;28;20586;-52
2022/07/15 05:00:55;;;;;;;3.97;2.10;;;14.10;99.90;;;;;;5113888;28;20225;-51
2022/07/15 05:03:23;;;;;;;3.90;2.20;;;14.00;99.90;;;;;;5112576;28;20207;-51
2022/07/15 05:05:51;;;;;;;3.53;2.23;;;13.90;99.90;;;;;;5111246;28;20212;-52
2022/07/15 05:08:21;;;;;;;4.40;2.40;;;14.00;99.90;;;;;;5101641;28;20208;-52
2022/07/15 05:10:49;;;;;;;3.83;2.10;;;14.00;99.90;;;;;;5110927;28;20264;-52
2022/07/15 05:13:17;;;;;;;3.90;2.00;;;14.30;99.90;;;;;;5109067;28;20614;-53
2022/07/15 05:15:45;;;;;;;4.67;2.03;;;14.50;99.90;;;;;;5108665;28;20269;-52
2022/07/15 05:18:13;;;;;;;3.27;2.20;;;14.50;99.90;;;;;;5109789;28;20195;-53
2022/07/15 05:20:42;;;;;;;3.33;2.10;;;14.70;99.90;;;;;;5108230;28;20295;-52
2022/07/15 05:23:10;;;;;;;4.33;2.50;;;14.80;99.90;;;;;;5107069;28;20284;-52
2022/07/15 05:25:39;;;;;;;3.80;2.27;;;14.90;99.90;;;;;;5109608;28;20257;-52
2022/07/15 05:28:08;;;;;;;5.07;2.58;;;15.50;99.90;;;;;;5109847;28;20249;-52
2022/07/15 05:30:37;;;;;;;5.45;2.33;;;16.00;99.90;;;;;;5110852;28;20344;-52
2022/07/15 05:33:05;;;;;;;5.80;2.50;;;16.90;99.90;;;;;;5110889;28;20210;-52
2022/07/15 05:35:33;;;;;;;3.80;2.70;;;17.30;99.90;;;;;;5109489;28;20208;-53
2022/07/15 05:38:01;;;;;;;8.07;2.55;;;18.10;99.90;;;;;;5110010;28;20918;-52
2022/07/15 05:40:30;;;;;;;9.50;2.60;;;18.80;99.90;;;;;;5110995;28;20211;-52
2022/07/15 05:42:59;;;;;;;10.18;2.58;;;19.40;99.90;;;;;;5111026;28;20231;-52
2022/07/15 05:45:27;;;;;;;6.60;2.50;;;19.90;99.90;;;;;;5110082;28;20712;-52
2022/07/15 05:47:55;;;;;;;5.50;2.13;;;20.30;99.90;;;;;;5110933;28;20208;-53
2022/07/15 05:50:24;;;;;;;2.40;2.20;;;20.60;99.90;;;;;;5111020;28;20816;-53
2022/07/15 05:52:52;;;;;;;2.83;2.10;;;20.70;99.90;;;;;;5110604;28;20192;-52
2022/07/15 05:55:20;;;;;;;3.33;2.38;;;19.90;99.90;;;;;;5109868;28;20231;-52
2022/07/15 05:57:48;;;;;;;5.03;2.10;;;19.30;99.90;;;;;;5109984;28;20204;-52
2022/07/15 06:00:18;;;;;;;4.57;2.20;;;18.90;99.90;;;;;;5110766;28;20568;-53
2022/07/15 06:02:46;;;;;;;4.38;2.50;;;18.60;99.90;;;;;;5108781;28;20215;-52
2022/07/15 06:05:14;;;;;;;5.45;2.60;;;18.50;99.90;;;;;;5110396;28;20606;-52
2022/07/15 06:07:42;;;;;;;3.88;2.60;;;18.20;99.90;;;;;;5110117;28;20260;-53
2022/07/15 06:10:10;;;;;;;6.93;2.58;;;18.10;99.90;;;;;;5110189;28;20610;-52
2022/07/15 06:12:38;;;;;;;7.93;2.45;;;17.90;99.90;;;;;;5109860;28;20203;-52
2022/07/15 06:15:08;;;;;;;5.15;2.80;;;17.70;99.90;;;;;;5109232;28;20227;-52
2022/07/15 06:17:38;;;;;;;4.88;2.97;;;17.60;99.90;;;;;;5109987;28;20257;-52
2022/07/15 06:20:07;;;;;;;4.05;2.75;;;17.60;99.90;;;;;;5109340;28;20207;-53
2022/07/15 06:22:39;;;;;;;5.75;3.00;;;17.60;99.90;;;;;;5109384;28;20216;-52
2022/07/15 06:25:08;;;;;;;5.18;2.83;;;17.50;99.90;;;;;;5109978;28;20268;-52
2022/07/15 06:27:36;;;;;;;5.85;2.83;;;17.60;99.90;;;;;;5109638;28;20580;-52
2022/07/15 06:30:06;;;;;;;6.60;3.00;;;17.60;99.90;;;;;;5109561;28;20203;-52
2022/07/15 06:32:34;;;;;;;4.78;2.92;;;17.70;99.90;;;;;;5109580;28;20673;-52
2022/07/15 06:35:05;;;;;;;6.35;3.30;;;17.60;99.90;;;;;;5109248;28;20280;-52
2022/07/15 06:37:33;;;;;;;5.10;2.97;;;17.50;99.90;;;;;;5109104;28;20207;-52
2022/07/15 06:40:02;;;;;;;5.57;3.00;;;17.50;99.90;;;;;;5109606;28;20207;-51
2022/07/15 06:42:30;;;;;;;7.45;3.40;;;17.50;99.90;;;;;;5109477;28;20223;-51
2022/07/15 06:44:58;;;;;;;6.07;3.25;;;17.50;99.90;;;;;;5104006;28;20235;-52
2022/07/15 06:47:28;;;;;;;5.68;2.90;;;17.50;99.90;;;;;;5100749;28;20252;-51
2022/07/15 06:49:57;;;;;;;5.32;3.25;;;17.60;99.90;;;;;;5102552;27;20211;-51
2022/07/15 06:52:26;;;;;;;9.95;3.45;;;17.70;99.90;;;;;;5099627;27;20203;-52
2022/07/15 06:54:54;;;;;;;6.70;3.78;;;17.60;99.90;;;;;;5102382;28;20272;-52
2022/07/15 06:57:22;;;;;;;12.02;4.20;;;17.60;99.90;;;;;;5105550;28;20629;-52
2022/07/15 06:59:51;;;;;;;5.15;3.55;;;17.50;99.90;;;;;;5104556;28;20304;-52
2022/07/15 07:02:19;;;;;;;7.72;4.30;;;17.60;99.90;;;;;;5105579;28;20772;-52
2022/07/15 07:04:47;;;;;;;9.23;3.90;;;17.50;99.90;;;;;;5106941;28;20314;-51
2022/07/15 07:07:15;;;;;;;6.53;4.07;;;17.50;99.90;;;;;;5102493;28;20731;-52
2022/07/15 07:09:44;;;;;;;6.97;3.75;;;17.50;99.90;;;;;;5106838;28;20212;-52
2022/07/15 07:12:12;;;;;;;6.95;4.18;;;17.50;99.90;;;;;;5109118;28;20624;-52
2022/07/15 07:14:40;;;;;;;10.13;4.47;;;17.50;99.90;;;;;;5102014;28;20276;-53
2022/07/15 07:17:09;;;;;;;9.65;4.43;;;17.50;99.90;;;;;;5106891;28;20684;-51
2022/07/15 07:19:37;;;;;;;6.95;3.90;;;17.60;99.90;;;;;;5106624;28;20207;-51
2022/07/15 07:22:05;;;;;;;7.20;4.20;;;17.80;99.90;;;;;;5102906;28;20268;-52
2022/07/15 07:24:33;;;;;;;8.88;3.50;;;18.00;99.90;;;;;;5100709;28;20773;-52
2022/07/15 07:27:02;;;;;;;8.27;4.60;;;18.00;99.90;;;;;;5107831;28;20340;-52
2022/07/15 07:29:34;;;;;;;8.40;3.83;;;18.20;99.90;;;;;;5107237;28;20207;-52
2022/07/15 07:32:02;;;;;;;7.40;3.90;;;18.40;99.90;;;;;;5108236;28;20230;-52
2022/07/15 07:34:30;;;;;;;6.63;3.63;;;18.40;99.90;;;;;;5108134;28;20223;-52
2022/07/15 07:36:59;;;;;;;8.98;4.20;;;18.30;99.90;;;;;;5108207;28;20256;-52
2022/07/15 07:39:27;;;;;;;7.57;3.83;;;18.40;99.90;;;;;;5108562;28;21345;-52
2022/07/15 07:41:55;;;;;;;6.35;3.78;;;18.50;99.90;;;;;;5108581;28;20203;-51
2022/07/15 07:44:24;;;;;;;6.47;3.83;;;18.60;99.90;;;;;;5107995;28;20880;-52
2022/07/15 07:46:52;;;;;;;6.18;3.25;;;18.60;99.90;;;;;;5108494;28;20211;-52
2022/07/15 07:49:21;;;;;;;9.15;3.58;;;18.60;99.90;;;;;;5108488;28;20207;-52
2022/07/15 07:52:06;;;;;;;8.52;3.28;;;18.60;99.90;;;;;;5107623;28;20323;-51
2022/07/15 07:54:35;;;;;;;8.63;3.60;;;18.60;99.90;;;;;;5106784;28;20288;-52
2022/07/15 07:57:03;;;;;;;5.38;3.10;;;18.60;99.90;;;;;;5108032;28;20211;-52
2022/07/15 07:59:33;;;;;;;6.88;2.83;;;18.70;99.90;;;;;;5107760;28;20717;-52
2022/07/15 08:02:01;;;;;;;3.80;2.42;;;18.70;99.90;;;;;;5107500;28;20211;-52
2022/07/15 08:04:29;;;;;;;6.15;3.00;;;18.80;99.90;;;;;;5104743;28;20227;-52
2022/07/15 08:06:57;;;;;;;5.75;2.70;;;18.70;99.90;;;;;;5107271;28;20291;-52
2022/07/15 08:09:26;;;;;;;7.60;2.92;;;18.60;99.90;;;;;;5107786;28;20257;-52
2022/07/15 08:11:54;;;;;;;6.13;3.00;;;18.80;99.90;;;;;;5107891;28;20199;-52
2022/07/15 08:14:22;;;;;;;5.30;2.85;;;19.70;99.90;;;;;;5107555;28;20375;-52
2022/07/15 08:16:52;;;;;;;7.18;2.67;;;20.10;99.90;;;;;;5108263;28;20249;-52
2022/07/15 08:19:20;;;;;;;8.32;3.03;;;20.00;99.90;;;;;;5107765;28;20211;-52
2022/07/15 08:21:49;;;;;;;5.45;2.70;;;19.60;99.90;;;;;;5107703;28;20260;-52
2022/07/15 08:24:17;;;;;;;5.88;2.80;;;19.40;99.90;;;;;;5108131;28;20232;-52
2022/07/15 08:26:45;;;;;;;7.30;3.05;;;19.10;99.90;;;;;;5108419;28;20212;-51
2022/07/15 08:29:13;;;;;;;6.82;3.22;;;18.60;99.90;;;;;;5108668;28;20792;-51
2022/07/15 08:31:41;;;;;;;8.93;3.40;;;18.40;99.90;;;;;;5106432;28;20246;-51
2022/07/15 08:34:11;;;;;;;6.70;3.05;;;18.30;99.90;;;;;;5110241;28;20228;-51
2022/07/15 08:36:40;;;;;;;6.47;2.90;;;18.20;99.90;;;;;;5106745;28;20215;-52
2022/07/15 08:39:08;;;;;;;6.20;2.97;;;18.20;99.90;;;;;;5106017;28;20219;-52
2022/07/15 08:41:37;;;;;;;6.85;3.40;;;18.20;99.90;;;;;;5109071;28;20423;-52
2022/07/15 08:44:06;;;;;;;6.22;3.30;;;18.50;99.90;;;;;;5108774;28;20223;-52
2022/07/15 08:46:36;;;;;;;5.07;3.03;;;18.50;99.90;;;;;;5107323;28;20242;-52
2022/07/15 08:49:07;;;;;;;5.70;3.10;;;18.60;99.90;;;;;;5110180;28;20203;-52
2022/07/15 08:51:42;;;;;;;4.43;2.83;;;18.70;99.90;;;;;;5110854;28;20715;-52
2022/07/15 08:54:10;;;;;;;7.65;3.30;;;18.80;99.90;;;;;;5110798;28;20276;-52
2022/07/15 08:56:38;;;;;;;4.85;2.90;;;18.90;99.90;;;;;;5110889;28;20203;-52
2022/07/15 08:59:08;;;;;;;4.93;2.70;;;19.10;99.90;;;;;;5111678;28;20698;-52
2022/07/15 09:01:43;;;;;;;5.95;2.35;;;19.30;99.90;;;;;;5108937;28;20244;-51
2022/07/15 09:04:12;;;;;;;2.60;2.40;;;19.40;99.90;;;;;;5110534;28;20223;-52
2022/07/15 09:06:42;;;;;;;3.80;2.35;;;19.70;99.90;;;;;;5110911;28;20222;-52
2022/07/15 09:09:30;;;;;;;5.75;2.50;;;19.90;99.90;;;;;;5111213;28;20207;-52
2022/07/15 09:12:04;;;;;;;5.93;2.58;;;20.20;99.90;;;;;;5110018;28;20664;-52
2022/07/15 09:14:44;;;;;;;5.03;2.40;;;20.40;99.90;;;;;;5109639;28;20266;-52
2022/07/15 09:17:24;;;;;;;5.03;2.50;;;20.30;99.90;;;;;;5109575;28;20226;-52
2022/07/15 09:20:02;;;;;;;5.03;2.45;;;20.30;99.90;;;;;;5108188;28;20211;-51
2022/07/15 09:22:33;;;;;;;4.03;2.40;;;20.30;99.90;;;;;;5108607;28;20360;-52
2022/07/15 09:25:07;;;;;;;4.60;2.47;;;20.30;99.90;;;;;;5097911;28;20426;-52
2022/07/15 09:27:38;;;;;;;4.25;2.63;;;20.40;99.90;;;;;;5101555;28;20210;-53
2022/07/15 09:36:03;;;;;;;3.88;2.33;;;20.80;99.90;;;;;;5098079;28;20203;-52
2022/07/15 09:38:44;;;;;;;3.20;2.10;;;20.70;99.90;;;;;;5100230;28;20211;-52
2022/07/15 09:41:21;;;;;;;5.28;2.35;;;20.80;99.90;;;;;;5107376;28;20252;-51
2022/07/15 09:43:51;;;;;;;3.63;2.25;;;20.80;99.90;;;;;;5105674;28;20231;-51
2022/07/15 09:46:21;;;;;;;5.05;2.55;;;20.90;99.90;;;;;;5097645;28;20283;-52
2022/07/15 09:48:51;;;;;;;4.82;2.10;;;21.20;99.90;;;;;;5108668;28;20200;-52
2022/07/15 09:51:20;;;;;;;3.63;2.13;;;21.30;99.90;;;;;;5108964;28;20200;-52
2022/07/15 09:53:51;;;;;;;5.45;1.92;;;21.50;99.90;;;;;;5100238;28;20220;-52
2022/07/15 09:56:25;;;;;;;4.38;2.10;;;21.50;99.90;;;;;;5110061;28;20208;-52
2022/07/15 09:58:53;;;;;;;6.97;2.28;;;21.30;99.90;;;;;;5109624;28;20200;-52
2022/07/15 10:01:21;;;;;;;4.05;2.28;;;21.20;99.90;;;;;;5110189;28;20737;-52
2022/07/15 10:03:50;;;;;;;5.10;2.10;;;20.90;99.90;;;;;;5107848;28;20215;-52
2022/07/15 10:06:20;;;;;;;4.60;2.10;;;20.60;99.90;;;;;;5109589;28;20287;-52
2022/07/15 10:08:50;;;;;;;4.20;1.95;;;20.40;99.90;;;;;;5109437;28;20207;-53
2022/07/15 10:11:19;;;;;;;3.65;2.30;;;20.30;99.90;;;;;;5107988;28;20203;-52
2022/07/15 10:14:29;;;;;;;4.43;2.17;;;20.40;99.90;;;;;;5110552;28;20215;-52
2022/07/15 10:17:28;;;;;;;3.63;1.80;;;20.40;99.90;;;;;;5105086;28;20212;-52
2022/07/15 10:20:28;;;;;;;3.15;2.00;;;20.60;99.90;;;;;;5108673;28;20693;-52
2022/07/15 10:23:01;;;;;;;3.63;2.10;;;20.80;99.90;;;;;;5109265;28;20265;-52
2022/07/15 10:25:55;;;;;;;4.43;1.42;;;21.00;99.90;;;;;;5108126;28;20730;-52
2022/07/15 10:28:32;;;;;;;3.30;1.75;;;21.10;98.90;;;;;;5106574;28;20260;-52
2022/07/15 10:31:15;;;;;;;7.40;1.73;;;21.10;98.90;;;;;;5108983;28;20252;-52
2022/07/15 10:34:04;;;;;;;5.78;1.80;;;21.00;98.20;;;;;;5108573;28;20219;-52
2022/07/15 10:36:41;;;;;;;2.97;1.65;;;21.00;99.30;;;;;;5108799;28;20242;-53
2022/07/15 10:39:09;;;;;;;3.20;1.90;;;21.20;98.40;;;;;;5109263;28;20214;-52
2022/07/15 10:41:53;;;;;;;3.90;1.77;;;21.80;98.70;;;;;;5108042;28;20207;-52
2022/07/15 10:44:22;;;;;;;4.70;1.83;;;21.80;97.00;;;;;;5103224;28;20634;-52
2022/07/15 10:47:18;;;;;;;3.03;1.70;;;21.90;96.80;;;;;;5108690;28;20215;-53
2022/07/15 10:49:48;;;;;;;4.30;1.50;;;21.70;96.70;;;;;;5107908;28;20672;-52
2022/07/15 10:52:19;;;;;;;3.88;1.42;;;21.70;96.90;;;;;;5108668;28;20208;-53
2022/07/15 10:54:52;;;;;;;3.90;1.70;;;21.70;97.20;;;;;;5107647;28;20231;-52
2022/07/15 10:57:20;;;;;;;3.65;1.60;;;21.80;97.30;;;;;;5108837;28;20223;-52
2022/07/15 10:59:56;;;;;;;3.00;1.60;;;21.80;97.10;;;;;;5108439;28;20641;-53
2022/07/15 11:02:26;;;;;;;2.67;1.48;;;21.60;95.40;;;;;;5107265;28;20268;-52
2022/07/15 11:05:21;;;;;;;1.70;1.08;;;21.40;95.60;;;;;;5109250;28;20231;-52
2022/07/15 11:07:51;;;;;;;4.50;1.25;;;21.50;95.50;;;;;;5108494;28;20217;-52
2022/07/15 11:10:22;;;;;;;4.32;1.60;;;21.50;94.10;;;;;;5108525;28;20252;-52
2022/07/15 11:12:59;;;;;;;3.08;1.15;;;21.70;94.60;;;;;;5108322;28;20195;-52
2022/07/15 11:15:28;;;;;;;2.83;1.13;;;21.90;93.60;;;;;;5094877;28;20643;-53
2022/07/15 11:17:57;;;;;;;3.78;1.25;;;22.00;94.80;;;;;;5105356;28;20216;-52
2022/07/15 11:20:38;;;;;;;2.03;0.90;;;21.90;94.90;;;;;;5107632;28;20302;-52
2022/07/15 11:23:09;;;;;;;3.40;1.60;;;21.90;94.90;;;;;;5105216;28;20261;-52
2022/07/15 11:25:39;;;;;;;4.22;1.80;;;21.80;94.30;;;;;;5107616;28;20234;-52
2022/07/15 11:28:10;;;;;;;4.00;1.38;;;21.80;94.80;;;;;;5108069;28;20207;-53
2022/07/15 11:30:42;;;;;;;2.83;1.35;;;21.90;93.90;;;;;;5107392;28;20268;-53
2022/07/15 11:33:13;;;;;;;2.63;1.20;;;21.90;94.20;;;;;;5106985;28;20262;-53
2022/07/15 11:35:48;;;;;;;3.45;1.38;;;21.90;94.10;;;;;;5106307;28;20253;-52
2022/07/15 11:38:18;;;;;;;2.17;1.20;;;21.80;93.40;;;;;;5106717;28;20199;-53
2022/07/15 11:46:21;;;;;;;2.65;1.27;;;22.00;92.80;;;;;;5107020;28;20223;-52
2022/07/15 11:48:51;;;;;;;3.45;1.23;;;21.80;92.80;;;;;;5105843;28;20203;-52
2022/07/15 11:51:25;;;;;;;4.35;1.30;;;22.30;94.50;;;;;;5108290;28;20256;-53
2022/07/15 11:53:56;;;;;;;4.10;1.20;;;22.90;92.30;;;;;;5107223;28;20275;-52
2022/07/15 11:56:25;;;;;;;4.50;1.55;;;23.20;92.30;;;;;;5104777;28;20196;-53
2022/07/15 11:58:54;;;;;;;2.83;1.38;;;23.30;92.70;;;;;;5108428;28;20264;-53
2022/07/15 12:01:24;;;;;;;3.40;1.70;;;23.20;91.50;;;;;;5108325;28;20196;-52
2022/07/15 12:03:54;;;;;;;3.10;1.30;;;22.80;91.10;;;;;;5105900;28;20572;-53
2022/07/15 12:06:24;;;;;;;4.22;1.30;;;22.50;91.70;;;;;;5108687;28;20273;-51
2022/07/15 12:08:55;;;;;;;8.35;1.60;;;22.40;91.50;;;;;;5108092;28;20268;-51
2022/07/15 12:11:25;;;;;;;37.33;2.70;;;22.50;91.20;;;;;;5109040;28;20219;-52
2022/07/15 12:13:57;;;;;;;1.90;1.27;;;22.50;91.20;;;;;;5108587;28;20231;-52
2022/07/15 12:16:29;;;;;;;3.97;1.35;;;22.40;90.40;;;;;;5112616;28;20264;-53
2022/07/15 12:18:59;;;;;;;5.13;1.63;;;22.60;92.00;;;;;;5112433;28;20210;-52
2022/07/15 12:21:28;;;;;;;2.58;1.05;;;22.50;89.50;;;;;;5111980;28;20238;-53
2022/07/15 12:24:06;;;;;;;3.67;1.42;;;22.30;90.60;;;;;;5112518;28;20231;-53
2022/07/15 12:26:38;;;;;;;3.83;1.00;;;22.20;90.00;;;;;;5112148;28;20884;-53
2022/07/15 12:29:09;;;;;;;4.10;1.05;;;22.30;90.30;;;;;;5111995;28;20219;-52
2022/07/15 12:31:38;;;;;;;3.60;1.38;;;22.30;90.10;;;;;;5107715;28;20207;-53
2022/07/15 12:34:07;;;;;;;2.28;1.23;;;22.50;90.10;;;;;;5109469;28;20246;-52
2022/07/15 12:36:38;;;;;;;3.63;1.45;;;22.40;89.10;;;;;;5109910;28;20276;-52
2022/07/15 12:39:10;;;;;;;3.58;1.50;;;22.50;90.30;;;;;;5111425;28;20725;-53
2022/07/15 12:41:59;;;;;;;6.05;1.27;;;22.50;90.10;;;;;;5111141;28;20229;-53
2022/07/15 12:44:27;;;;;;;3.33;1.30;;;22.40;89.60;;;;;;5111414;28;20650;-52
2022/07/15 12:46:58;;;;;;;4.45;1.33;;;22.60;89.90;;;;;;5111983;28;20270;-53
2022/07/15 12:49:49;;;;;;;2.45;1.02;;;22.60;90.50;;;;;;5111220;28;20298;-53
2022/07/15 12:52:29;;;;;;;4.78;1.27;;;22.40;88.40;;;;;;5111046;28;20647;-52
2022/07/15 12:55:11;;;;;;;3.60;1.05;;;22.40;89.20;;;;;;5111889;28;20226;-52
2022/07/15 12:57:40;;;;;;;3.97;1.73;;;22.20;90.10;;;;;;5110884;28;20575;-53
2022/07/15 13:00:13;;;;;;;1.63;1.10;;;22.30;89.50;;;;;;5112400;28;20579;-52
2022/07/15 13:02:58;;;;;;;3.22;1.38;;;22.30;86.40;;;;;;5112439;28;20244;-54
2022/07/15 13:05:29;;;;;;;1.95;1.10;;;22.10;86.70;;;;;;5111380;28;21451;-52
2022/07/15 13:07:57;;;;;;;4.28;1.20;;;22.00;87.10;;;;;;5112223;28;20634;-53
2022/07/15 13:10:29;;;;;;;2.80;1.33;;;22.00;88.20;;;;;;5110972;28;20208;-52
2022/07/15 13:12:57;;;;;;;3.97;1.52;;;22.10;89.60;;;;;;5111734;28;20211;-52
2022/07/15 13:15:25;;;;;;;2.75;1.30;;;22.10;86.40;;;;;;5110735;28;20232;-52